createdAt,value
2022-10-28T00:01:25.977Z,102444.91
2022-10-28T00:04:01.065Z,102444.91
2022-10-28T00:06:32.910Z,102444.64
2022-10-28T00:09:03.775Z,102441.67
2022-10-28T00:11:34.904Z,102438.41
2022-10-28T00:14:06.198Z,102438.95
2022-10-28T00:16:35.546Z,102436.17
2022-10-28T00:19:05.846Z,102437.42
2022-10-28T00:21:36.833Z,102440.76
2022-10-28T00:24:06.630Z,102442.00
2022-10-28T00:26:39.234Z,102441.84
2022-10-28T00:29:10.193Z,102439.08
2022-10-28T00:31:39.093Z,102432.45
2022-10-28T00:34:11.928Z,102428.08
2022-10-28T00:36:42.586Z,102426.21
2022-10-28T00:39:19.587Z,102421.27
2022-10-28T00:41:50.500Z,102418.58
2022-10-28T00:44:37.137Z,102398.26
2022-10-28T00:47:13.196Z,102407.05
2022-10-28T00:49:43.120Z,102407.77
2022-10-28T00:52:17.762Z,102408.96
2022-10-28T00:54:46.521Z,102403.75
2022-10-28T00:57:19.733Z,102402.88
2022-10-28T01:13:28.638Z,102393.98
2022-10-28T01:16:26.918Z,102390.27
2022-10-28T01:19:34.210Z,102390.39
2022-10-28T01:22:24.474Z,102382.48
2022-10-28T01:25:21.705Z,102384.90
2022-10-28T01:28:08.183Z,102385.95
2022-10-28T01:31:15.159Z,102386.64
2022-10-28T01:34:04.899Z,102385.07
2022-10-28T01:37:00.937Z,102379.91
2022-10-28T01:39:33.506Z,102378.58
2022-10-28T01:42:10.434Z,102372.98
2022-10-28T01:44:53.337Z,102370.80
2022-10-28T01:47:28.790Z,102369.10
2022-10-28T01:50:02.642Z,102366.25
2022-10-28T01:52:32.442Z,102363.66
2022-10-28T01:55:11.839Z,102364.72
2022-10-28T01:57:42.182Z,102346.21
2022-10-28T02:00:11.130Z,102360.41
2022-10-28T02:02:43.430Z,102361.58
2022-10-28T02:05:36.814Z,102356.10
2022-10-28T02:08:11.219Z,102352.80
2022-10-28T02:11:00.514Z,102355.89
2022-10-28T02:13:44.427Z,102352.31
2022-10-28T02:16:20.223Z,102354.67
2022-10-28T02:19:16.391Z,102351.33
2022-10-28T02:21:58.995Z,102353.47
2022-10-28T02:24:45.325Z,102347.27
2022-10-28T02:27:28.876Z,102343.61
2022-10-28T02:30:11.520Z,102347.17
2022-10-28T02:32:44.634Z,102345.92
2022-10-28T02:35:25.723Z,102346.98
2022-10-28T02:37:55.643Z,102341.61
2022-10-28T02:40:28.043Z,102340.44
2022-10-28T02:43:02.487Z,102342.39
2022-10-28T02:45:54.352Z,102330.14
2022-10-28T02:48:33.776Z,102328.70
2022-10-28T02:51:11.995Z,102343.14
2022-10-28T02:53:54.787Z,102343.75
2022-10-28T02:56:23.206Z,102325.68
2022-10-28T02:58:51.674Z,102336.20
2022-10-28T03:01:19.913Z,102335.25
2022-10-28T03:03:48.182Z,102338.63
2022-10-28T03:06:16.506Z,102336.11
2022-10-28T03:08:44.585Z,102331.46
2022-10-28T03:11:12.638Z,102327.45
2022-10-28T03:13:40.882Z,102325.25
2022-10-28T03:16:10.614Z,102321.26
2022-10-28T03:18:38.759Z,102320.98
2022-10-28T03:21:07.698Z,102315.20
2022-10-28T03:23:36.064Z,102318.79
2022-10-28T03:26:04.172Z,102315.05
2022-10-28T03:28:32.246Z,102311.33
2022-10-28T03:31:00.462Z,102313.62
2022-10-28T03:33:29.495Z,102312.08
2022-10-28T03:35:57.726Z,102309.35
2022-10-28T03:38:28.042Z,102299.86
2022-10-28T03:40:56.330Z,102300.06
2022-10-28T03:43:24.770Z,102303.09
2022-10-28T03:45:53.306Z,102301.12
2022-10-28T03:48:21.434Z,102299.00
2022-10-28T03:50:54.210Z,102298.65
2022-10-28T03:53:26.276Z,102297.48
2022-10-28T03:55:57.831Z,102298.77
2022-10-28T03:58:26.435Z,102296.77
2022-10-28T04:00:55.341Z,102296.48
2022-10-28T04:03:25.173Z,102293.30
2022-10-28T04:05:53.249Z,102294.33
2022-10-28T04:08:21.622Z,102294.55
2022-10-28T04:10:50.481Z,102292.08
2022-10-28T04:13:18.590Z,102291.02
2022-10-28T04:15:46.702Z,102291.14
2022-10-28T04:18:14.869Z,102283.55
2022-10-28T04:20:42.892Z,102279.65
2022-10-28T04:23:16.076Z,102279.70
2022-10-28T04:25:44.437Z,102281.02
2022-10-28T04:28:12.521Z,102275.73
2022-10-28T04:30:40.582Z,102275.59
2022-10-28T04:33:12.447Z,102268.04
2022-10-28T04:35:42.938Z,102260.29
2022-10-28T04:38:11.669Z,102257.73
2022-10-28T04:40:40.409Z,102258.20
2022-10-28T04:43:10.107Z,102254.91
2022-10-28T04:45:39.498Z,102251.16
2022-10-28T04:48:10.366Z,102242.77
2022-10-28T04:50:38.565Z,102241.98
2022-10-28T04:53:12.374Z,102233.21
2022-10-28T04:55:40.585Z,102230.64
2022-10-28T04:58:10.035Z,102231.29
2022-10-28T05:00:38.128Z,102224.33
2022-10-28T05:03:06.340Z,102226.73
2022-10-28T05:05:34.451Z,102222.77
2022-10-28T05:08:02.623Z,102222.33
2022-10-28T05:10:31.937Z,102224.54
2022-10-28T05:13:00.015Z,102210.25
2022-10-28T05:15:28.467Z,102216.20
2022-10-28T05:17:56.816Z,102211.69
2022-10-28T05:20:25.177Z,102217.88
2022-10-28T05:22:55.436Z,102214.15
2022-10-28T05:25:24.396Z,102213.46
2022-10-28T05:27:52.720Z,102210.07
2022-10-28T05:30:21.084Z,102203.27
2022-10-28T05:32:51.517Z,102200.81
2022-10-28T05:35:23.086Z,102199.31
2022-10-28T05:37:51.148Z,102196.52
2022-10-28T05:40:19.651Z,102194.70
2022-10-28T05:42:47.685Z,102200.98
2022-10-28T05:45:16.691Z,102210.56
2022-10-28T05:47:46.166Z,102210.58
2022-10-28T05:50:16.665Z,102210.33
2022-10-28T05:52:49.704Z,102211.67
2022-10-28T05:55:19.935Z,102212.73
2022-10-28T05:57:49.783Z,102209.88
2022-10-28T06:00:20.021Z,102209.30
2022-10-28T06:02:48.204Z,102204.23
2022-10-28T06:05:17.042Z,102200.09
2022-10-28T06:07:45.275Z,102191.20
2022-10-28T06:10:13.311Z,102187.00
2022-10-28T06:12:41.005Z,102182.38
2022-10-28T06:15:09.418Z,102182.56
2022-10-28T06:17:37.897Z,102177.27
2022-10-28T06:20:06.440Z,102178.84
2022-10-28T06:22:34.438Z,102164.63
2022-10-28T06:25:02.788Z,102178.44
2022-10-28T06:27:31.730Z,102175.16
2022-10-28T06:29:59.898Z,102171.95
2022-10-28T06:32:28.007Z,102154.92
2022-10-28T06:34:56.166Z,102172.98
2022-10-28T06:37:24.575Z,102169.71
2022-10-28T06:39:53.109Z,102171.06
2022-10-28T06:42:21.543Z,102171.94
2022-10-28T06:44:50.756Z,102168.27
2022-10-28T06:47:20.843Z,102177.11
2022-10-28T06:49:49.594Z,102180.52
2022-10-28T06:52:18.121Z,102188.77
2022-10-28T06:54:46.397Z,102191.07
2022-10-28T06:57:14.504Z,102195.45
2022-10-28T06:59:43.129Z,102194.36
2022-10-28T07:02:15.994Z,102190.94
2022-10-28T07:04:44.391Z,102188.80
2022-10-28T07:07:13.527Z,102184.54
2022-10-28T07:09:43.929Z,102188.45
2022-10-28T07:12:12.384Z,102189.06
2022-10-28T07:14:40.560Z,102194.83
2022-10-28T07:17:09.228Z,102180.77
2022-10-28T07:19:37.693Z,102194.10
2022-10-28T07:22:06.831Z,102191.69
2022-10-28T07:24:35.008Z,102189.42
2022-10-28T07:27:04.361Z,102187.23
2022-10-28T07:29:32.842Z,102179.70
2022-10-28T07:32:01.256Z,102173.58
2022-10-28T07:34:29.380Z,102170.19
2022-10-28T07:36:58.655Z,102167.40
2022-10-28T07:39:26.958Z,102166.72
2022-10-28T07:41:55.218Z,102165.80
2022-10-28T07:44:23.323Z,102164.80
2022-10-28T07:46:54.317Z,102147.48
2022-10-28T07:49:25.589Z,102158.05
2022-10-28T07:51:53.721Z,102143.67
2022-10-28T07:54:21.929Z,102163.02
2022-10-28T07:56:50.143Z,102161.33
2022-10-28T07:59:25.821Z,102166.85
2022-10-28T08:01:55.545Z,102164.50
2022-10-28T08:04:23.784Z,102159.10
2022-10-28T08:06:51.917Z,102157.54
2022-10-28T08:09:19.981Z,102148.19
2022-10-28T08:11:48.176Z,102160.94
2022-10-28T08:14:16.272Z,102164.16
2022-10-28T08:16:45.703Z,102158.16
2022-10-28T08:19:13.816Z,102151.80
2022-10-28T08:21:41.884Z,102158.38
2022-10-28T08:24:09.997Z,102156.75
2022-10-28T08:26:38.048Z,102159.30
2022-10-28T08:29:07.735Z,102157.14
2022-10-28T08:31:35.856Z,102154.80
2022-10-28T08:34:05.424Z,102152.15
2022-10-28T08:36:33.860Z,102151.73
2022-10-28T08:39:03.153Z,102151.41
2022-10-28T08:41:44.760Z,102144.17
2022-10-28T08:44:31.609Z,102140.86
2022-10-28T08:47:25.738Z,102138.79
2022-10-28T08:50:02.546Z,102137.44
2022-10-28T08:52:41.925Z,102135.30
2022-10-28T08:55:20.078Z,102129.37
2022-10-28T08:57:52.931Z,102127.42
2022-10-28T09:00:26.413Z,102119.58
2022-10-28T09:03:12.731Z,102116.52
2022-10-28T09:05:50.675Z,102110.20
2022-10-28T09:08:23.827Z,102102.84
2022-10-28T09:11:10.399Z,102092.58
2022-10-28T09:13:47.736Z,102104.15
2022-10-28T09:16:37.862Z,102106.37
2022-10-28T09:19:15.509Z,102108.20
2022-10-28T09:22:02.301Z,102099.27
2022-10-28T09:24:39.643Z,102099.28
2022-10-28T09:27:34.503Z,102097.19
2022-10-28T09:30:27.261Z,102097.38
2022-10-28T09:32:55.563Z,102092.08
2022-10-28T09:35:44.669Z,102086.64
2022-10-28T09:38:35.077Z,102087.89
2022-10-28T09:41:41.599Z,102087.48
2022-10-28T09:44:49.669Z,102062.96
2022-10-28T09:47:23.692Z,102076.31
2022-10-28T09:49:57.315Z,102074.44
2022-10-28T09:52:30.784Z,102071.32
2022-10-28T09:55:03.498Z,102071.22
2022-10-28T09:57:49.317Z,102062.59
2022-10-28T10:00:35.098Z,102057.17
2022-10-28T10:03:20.715Z,102055.77
2022-10-28T10:05:52.168Z,102050.55
2022-10-28T10:08:22.847Z,102054.92
2022-10-28T10:10:56.642Z,102054.77
2022-10-28T10:13:30.960Z,102054.83
2022-10-28T10:16:13.886Z,102054.31
2022-10-28T10:18:47.278Z,102047.02
2022-10-28T10:21:16.748Z,102038.81
2022-10-28T10:23:44.838Z,102037.39
2022-10-28T10:26:14.751Z,102034.90
2022-10-28T10:28:49.405Z,102035.14
2022-10-28T10:31:35.299Z,102024.51
2022-10-28T10:34:25.386Z,102027.52
2022-10-28T10:36:56.163Z,102021.64
2022-10-28T10:39:28.751Z,102015.98
2022-10-28T10:41:56.941Z,102012.63
2022-10-28T10:44:35.498Z,102006.55
2022-10-28T10:47:06.219Z,102000.65
2022-10-28T10:49:35.933Z,101998.83
2022-10-28T10:52:04.620Z,102002.54
2022-10-28T10:54:34.622Z,102001.88
2022-10-28T10:57:20.477Z,102001.77
2022-10-28T10:59:54.415Z,102004.70
2022-10-28T11:02:27.903Z,101998.55
2022-10-28T11:05:01.652Z,101997.65
2022-10-28T11:07:30.124Z,101998.92
2022-10-28T11:09:58.597Z,101997.34
2022-10-28T11:12:53.273Z,102000.25
2022-10-28T11:15:26.904Z,101996.69
2022-10-28T11:17:58.376Z,102001.92
2022-10-28T11:20:38.265Z,102002.13
2022-10-28T11:23:39.259Z,101999.02
2022-10-28T11:26:26.181Z,102003.33
2022-10-28T11:29:00.273Z,102006.95
2022-10-28T11:32:05.005Z,102003.69
2022-10-28T11:34:52.126Z,102009.06
2022-10-28T11:37:50.810Z,102007.80
2022-10-28T11:40:22.370Z,102004.00
2022-10-28T11:43:15.325Z,102003.96
2022-10-28T11:46:20.745Z,102008.34
2022-10-28T11:49:11.477Z,101998.02
2022-10-28T11:52:12.465Z,101987.86
2022-10-28T11:55:14.469Z,101990.35
2022-10-28T12:01:14.743Z,101993.05
2022-10-28T12:04:13.695Z,101993.58
2022-10-28T12:07:02.550Z,101984.64
2022-10-28T12:09:30.583Z,101977.92
2022-10-28T12:12:22.924Z,101976.64
2022-10-28T12:15:12.740Z,101967.61
2022-10-28T12:18:09.943Z,101978.08
2022-10-28T12:20:45.491Z,101980.80
2022-10-28T12:23:18.340Z,101985.04
2022-10-28T12:25:50.136Z,101981.87
2022-10-28T12:28:55.598Z,101983.09
2022-10-28T12:31:34.703Z,101971.92
2022-10-28T12:34:10.231Z,101969.17
2022-10-28T12:36:45.248Z,101969.30
2022-10-28T12:39:20.083Z,101948.17
2022-10-28T12:42:00.880Z,101965.36
2022-10-28T12:44:31.412Z,101959.98
2022-10-28T12:47:05.688Z,101953.78
2022-10-28T12:50:10.700Z,101948.84
2022-10-28T12:53:02.314Z,101946.14
2022-10-28T12:55:58.699Z,101943.50
2022-10-28T12:58:53.373Z,101938.59
2022-10-28T13:01:39.734Z,101931.40
2022-10-28T13:04:12.920Z,101921.41
2022-10-28T13:06:53.102Z,101920.73
2022-10-28T13:09:58.760Z,101923.94
2022-10-28T13:12:59.952Z,101914.30
2022-10-28T13:15:56.685Z,101910.81
2022-10-28T13:18:53.676Z,101904.36
2022-10-28T13:21:30.968Z,101903.16
2022-10-28T13:24:44.233Z,101895.03
2022-10-28T13:27:30.568Z,101895.20
2022-10-28T13:30:00.561Z,101891.77
2022-10-28T13:32:35.785Z,101883.41
2022-10-28T13:35:25.238Z,101885.68
2022-10-28T13:37:55.339Z,101887.73
2022-10-28T13:40:43.827Z,101888.73
2022-10-28T13:43:51.481Z,101888.02
2022-10-28T13:46:57.478Z,101884.34
2022-10-28T13:50:08.708Z,101875.88
2022-10-28T13:52:40.227Z,101877.90
2022-10-28T13:55:14.426Z,101885.58
2022-10-28T13:57:46.706Z,101893.16
2022-10-28T14:00:17.866Z,101890.73
2022-10-28T14:02:58.651Z,101870.61
2022-10-28T14:05:36.062Z,101876.92
2022-10-28T14:08:35.835Z,101878.80
2022-10-28T14:11:06.115Z,101874.27
2022-10-28T14:13:47.819Z,101874.73
2022-10-28T14:16:37.794Z,101878.61
2022-10-28T14:19:17.202Z,101881.05
2022-10-28T14:22:06.505Z,101884.35
2022-10-28T14:24:39.651Z,101879.52
2022-10-28T14:27:15.494Z,101881.70
2022-10-28T14:29:56.347Z,101880.48
2022-10-28T14:32:49.415Z,101847.42
2022-10-28T14:35:29.326Z,101881.50
2022-10-28T14:38:22.429Z,101879.48
2022-10-28T14:41:35.471Z,101883.35
2022-10-28T14:44:07.027Z,101887.87
2022-10-28T14:46:44.233Z,101891.08
2022-10-28T14:49:26.943Z,101892.35
2022-10-28T14:51:56.870Z,101890.05
2022-10-28T14:54:35.343Z,101891.15
2022-10-28T14:57:06.238Z,101898.11
2022-10-28T14:59:41.000Z,101900.30
2022-10-28T15:02:27.682Z,101899.83
2022-10-28T15:05:13.606Z,101889.56
2022-10-28T15:07:42.679Z,101899.79
2022-10-28T15:10:29.675Z,101897.77
2022-10-28T15:12:59.034Z,101903.14
2022-10-28T15:15:53.498Z,101902.11
2022-10-28T15:18:25.919Z,101906.23
2022-10-28T15:21:17.151Z,101905.18
2022-10-28T15:23:47.460Z,101903.57
2022-10-28T15:26:16.911Z,101909.31
2022-10-28T15:28:45.125Z,101902.10
2022-10-28T15:31:30.690Z,101905.86
2022-10-28T15:33:58.718Z,101896.45
2022-10-28T15:36:27.326Z,101896.00
2022-10-28T15:39:15.195Z,101894.92
2022-10-28T15:42:02.577Z,101893.27
2022-10-28T15:44:55.828Z,101895.45
2022-10-28T15:47:45.138Z,101895.25
2022-10-28T15:50:36.947Z,101895.92
2022-10-28T15:53:11.189Z,101896.01
2022-10-28T15:58:35.948Z,101884.08
2022-10-28T16:01:09.819Z,101882.80
2022-10-28T16:03:42.815Z,101876.56
2022-10-28T16:06:26.676Z,101876.66
2022-10-28T16:08:59.850Z,101880.06
2022-10-28T16:11:29.213Z,101876.82
2022-10-28T16:13:58.443Z,101867.95
2022-10-28T16:16:32.884Z,101879.92
2022-10-28T16:19:09.691Z,101882.49
2022-10-28T16:21:39.031Z,101878.65
2022-10-28T16:24:09.728Z,101881.29
2022-10-28T16:27:19.182Z,101865.58
2022-10-28T16:29:48.764Z,101874.61
2022-10-28T16:32:20.005Z,101870.80
2022-10-28T16:34:48.448Z,101866.45
2022-10-28T16:37:35.136Z,101853.42
2022-10-28T16:40:03.451Z,101865.85
2022-10-28T16:42:32.055Z,101865.64
2022-10-28T16:45:00.102Z,101871.36
2022-10-28T16:47:29.220Z,101872.19
2022-10-28T16:50:16.052Z,101868.86
2022-10-28T16:52:44.344Z,101855.73
2022-10-28T16:55:17.032Z,101875.83
2022-10-28T16:57:45.292Z,101864.65
2022-10-28T17:00:14.166Z,101881.16
2022-10-28T17:02:43.165Z,101879.75
2022-10-28T17:05:20.215Z,101882.07
2022-10-28T17:07:49.507Z,101878.11
2022-10-28T17:10:18.103Z,101883.59
2022-10-28T17:13:03.602Z,101868.80
2022-10-28T17:15:52.806Z,101884.01
2022-10-28T17:18:38.882Z,101863.01
2022-10-28T17:21:07.253Z,101868.55
2022-10-28T17:23:35.502Z,101847.35
2022-10-28T17:26:21.357Z,101856.14
2022-10-28T17:28:52.949Z,101861.47
2022-10-28T17:31:24.913Z,101858.02
2022-10-28T17:34:12.509Z,101865.31
2022-10-28T17:36:41.064Z,101861.04
2022-10-28T17:39:15.278Z,101856.70
2022-10-28T17:41:45.395Z,101855.30
2022-10-28T17:44:31.323Z,101852.17
2022-10-28T17:46:59.755Z,101851.05
2022-10-28T17:49:28.292Z,101847.02
2022-10-28T17:51:56.472Z,101838.13
2022-10-28T17:56:57.961Z,101817.14
2022-10-28T17:59:43.881Z,101837.10
2022-10-28T18:02:14.603Z,101835.39
2022-10-28T18:04:45.406Z,101830.17
2022-10-28T18:07:13.697Z,101825.82
2022-10-28T18:09:45.935Z,101826.64
2022-10-28T18:12:14.228Z,101802.98
2022-10-28T18:14:42.555Z,101827.95
2022-10-28T18:17:14.536Z,101820.59
2022-10-28T18:20:02.209Z,101824.36
2022-10-28T18:22:30.981Z,101822.56
2022-10-28T18:24:59.246Z,101816.52
2022-10-28T18:27:30.798Z,101803.78
2022-10-28T18:30:16.418Z,101813.35
2022-10-28T18:32:44.750Z,101809.48
2022-10-28T18:35:30.286Z,101805.54
2022-10-28T18:38:01.543Z,101797.80
2022-10-28T18:40:29.898Z,101793.42
2022-10-28T18:42:57.998Z,101792.63
2022-10-28T18:45:26.266Z,101787.45
2022-10-28T18:47:54.949Z,101785.88
2022-10-28T18:50:23.550Z,101784.86
2022-10-28T18:53:09.277Z,101779.68
2022-10-28T18:55:37.669Z,101781.78
2022-10-28T18:58:05.968Z,101775.77
2022-10-28T19:00:53.162Z,101775.08
2022-10-28T19:03:39.704Z,101773.68
2022-10-28T19:06:15.814Z,101763.65
2022-10-28T19:09:04.206Z,101756.19
2022-10-28T19:11:49.935Z,101752.16
2022-10-28T19:14:36.118Z,101754.20
2022-10-28T19:17:22.161Z,101754.31
2022-10-28T19:19:51.647Z,101759.95
2022-10-28T19:22:19.841Z,101764.48
2022-10-28T19:24:48.433Z,101763.70
2022-10-28T19:27:16.823Z,101763.70
2022-10-28T19:29:45.057Z,101751.14
2022-10-28T19:32:13.180Z,101764.54
2022-10-28T19:34:59.014Z,101760.06
2022-10-28T19:37:27.755Z,101761.66
2022-10-28T19:39:56.643Z,101760.58
2022-10-28T19:42:25.807Z,101759.71
2022-10-28T19:44:55.936Z,101758.08
2022-10-28T19:47:24.195Z,101759.33
2022-10-28T19:49:52.340Z,101752.33
2022-10-28T19:52:20.892Z,101748.88
2022-10-28T19:55:08.799Z,101735.41
2022-10-28T19:57:40.558Z,101747.61
2022-10-28T20:00:10.052Z,101728.48
2022-10-28T20:02:43.101Z,101750.17
2022-10-28T20:05:11.386Z,101748.00
2022-10-28T20:07:57.572Z,101753.64
2022-10-28T20:10:25.925Z,101755.81
2022-10-28T20:12:54.555Z,101749.41
2022-10-28T20:15:23.097Z,101757.26
2022-10-28T20:17:51.651Z,101755.27
2022-10-28T20:20:20.573Z,101755.05
2022-10-28T20:22:48.965Z,101752.35
2022-10-28T20:25:17.453Z,101752.43
2022-10-28T20:27:45.845Z,101747.27
2022-10-28T20:30:31.513Z,101744.97
2022-10-28T20:32:59.685Z,101740.26
2022-10-28T20:35:45.051Z,101741.16
2022-10-28T20:38:13.340Z,101744.95
2022-10-28T20:40:41.722Z,101741.18
2022-10-28T20:43:09.852Z,101734.70
2022-10-28T20:45:38.982Z,101730.31
2022-10-28T20:48:07.208Z,101719.67
2022-10-28T20:50:35.473Z,101727.90
2022-10-28T20:53:03.666Z,101727.33
2022-10-28T20:55:32.002Z,101726.23
2022-10-28T20:58:00.175Z,101727.58
2022-10-28T21:00:28.717Z,101729.42
2022-10-28T21:02:57.315Z,101733.66
2022-10-28T21:05:26.004Z,101731.64
2022-10-28T21:07:54.942Z,101732.14
2022-10-28T21:10:23.979Z,101729.48
2022-10-28T21:13:09.968Z,101721.36
2022-10-28T21:15:39.976Z,101722.30
2022-10-28T21:18:26.952Z,101724.24
2022-10-28T21:20:57.452Z,101726.22
2022-10-28T21:23:27.815Z,101723.05
2022-10-28T21:26:01.356Z,101718.58
2022-10-28T21:28:30.998Z,101713.70
2022-10-28T21:31:07.702Z,101710.58
2022-10-28T21:33:37.086Z,101717.10
2022-10-28T21:36:11.065Z,101713.27
2022-10-28T21:38:39.911Z,101702.95
2022-10-28T21:41:13.247Z,101714.34
2022-10-28T21:43:44.263Z,101711.55
2022-10-28T21:46:13.123Z,101703.55
2022-10-28T21:49:01.038Z,101702.52
2022-10-28T21:51:47.096Z,101698.26
2022-10-28T21:54:34.148Z,101693.51
2022-10-28T21:57:02.847Z,101697.48
2022-10-28T21:59:32.575Z,101694.91
2022-10-28T22:02:01.358Z,101689.75
2022-10-28T22:04:47.676Z,101691.35
2022-10-28T22:07:16.307Z,101692.21
2022-10-28T22:09:44.729Z,101689.46
2022-10-28T22:12:30.818Z,101683.77
2022-10-28T22:14:59.316Z,101697.84
2022-10-28T22:17:29.496Z,101694.96
2022-10-28T22:19:57.760Z,101690.00
2022-10-28T22:22:43.669Z,101681.30
2022-10-28T22:25:11.796Z,101675.77
2022-10-28T22:27:40.137Z,101675.05
2022-10-28T22:30:09.196Z,101661.71
2022-10-28T22:32:54.959Z,101670.22
2022-10-28T22:35:23.305Z,101675.27
2022-10-28T22:38:08.701Z,101669.64
2022-10-28T22:40:37.116Z,101665.00
2022-10-28T22:43:05.470Z,101663.98
2022-10-28T22:45:33.836Z,101662.26
2022-10-28T22:48:19.332Z,101657.46
2022-10-28T22:50:47.493Z,101650.69
2022-10-28T22:53:15.544Z,101645.70
2022-10-28T22:55:43.589Z,101645.38
2022-10-28T22:58:12.006Z,101629.74
2022-10-28T23:00:40.029Z,101648.25
2022-10-28T23:03:08.348Z,101643.68
2022-10-28T23:05:36.673Z,101644.18
2022-10-28T23:08:04.865Z,101641.39
2022-10-28T23:10:50.858Z,101638.97
2022-10-28T23:13:18.913Z,101642.66
2022-10-28T23:15:47.053Z,101642.83
2022-10-28T23:18:15.104Z,101640.65
2022-10-28T23:20:43.608Z,101640.09
2022-10-28T23:23:29.344Z,101642.05
2022-10-28T23:25:57.543Z,101647.98
2022-10-28T23:28:25.809Z,101644.89
2022-10-28T23:30:53.901Z,101650.92
2022-10-28T23:33:22.133Z,101653.35
2022-10-28T23:35:55.190Z,101655.27
2022-10-28T23:38:41.392Z,101662.05
2022-10-28T23:41:12.461Z,101662.59
2022-10-28T23:43:40.633Z,101661.98
2022-10-28T23:46:26.832Z,101653.49
2022-10-28T23:48:54.960Z,101648.11
2022-10-28T23:51:40.835Z,101646.96
2022-10-28T23:54:09.346Z,101647.75
2022-10-28T23:56:37.892Z,101644.04
2022-10-28T23:59:05.951Z,101635.00
